Terminal Aerodrome Forecast
Issued by NWS Bismarck, ND

Home | Current Version | Previous Version | Text Only | Print | Product List | Glossary Off
Versions: 1 2 3 4 5 6 7 8 9 10 11 12 13 14 15 16 17 18 19 20 21 22 23

000
FTUS43 KBIS 250500
TAFBIS
TAF
KBIS 250531Z 2506/2606 26015G25KT P6SM OVC025
     FM251300 29015G22KT P6SM BKN015 BKN020
     FM251700 30013KT P6SM BKN025 BKN035
     FM252100 30012KT P6SM SCT030 BKN035
     FM260000 31008KT P6SM SCT035=

USA.gov is the U.S. government's official web portal to all federal, state and local government web resources and services.